createdAt,value
2022-11-14T07:19:33.986Z,4.39
2022-11-14T07:24:36.020Z,4.46
2022-11-14T07:29:38.066Z,4.39
2022-11-14T07:34:40.050Z,4.60
2022-11-14T07:39:42.176Z,4.71
2022-11-14T07:44:44.168Z,4.83
2022-11-14T07:49:46.162Z,5.07
2022-11-14T07:54:48.157Z,5.23
2022-11-14T07:59:50.424Z,5.60
2022-11-14T08:04:52.436Z,5.69
2022-11-14T08:09:54.453Z,5.78
2022-11-14T08:14:56.473Z,5.94
2022-11-14T08:19:58.468Z,6.11
2022-11-14T08:25:00.457Z,6.19
2022-11-14T08:30:02.501Z,6.43
2022-11-14T08:35:04.963Z,6.69
2022-11-14T08:40:07.369Z,6.82
2022-11-14T08:45:09.789Z,7.05
2022-11-14T08:50:11.796Z,7.24
2022-11-14T08:55:13.833Z,7.37
2022-11-14T09:00:16.315Z,7.35
2022-11-14T09:05:18.346Z,7.62
2022-11-14T09:10:20.346Z,7.83
2022-11-14T09:15:22.410Z,8.07
2022-11-14T09:20:31.061Z,8.30
2022-11-14T09:25:36.340Z,8.55
2022-11-14T09:30:38.380Z,8.89
2022-11-14T09:35:41.286Z,9.03
2022-11-14T09:40:57.713Z,9.44
2022-11-14T09:45:59.788Z,10.94
2022-11-14T09:51:08.528Z,11.86
2022-11-14T09:56:15.090Z,13.43
2022-11-14T10:01:33.352Z,15.06
2022-11-14T10:06:44.687Z,14.13
2022-11-14T10:11:46.651Z,16.71
2022-11-14T10:17:10.359Z,15.77
2022-11-14T10:22:44.373Z,15.15
2022-11-14T10:28:03.819Z,15.45
2022-11-14T10:33:22.178Z,20.27
2022-11-14T10:38:34.657Z,26.32
2022-11-14T10:43:40.576Z,30.04
2022-11-14T10:48:47.139Z,31.47
2022-11-14T10:53:58.251Z,32.62
2022-11-14T10:59:00.273Z,32.50
2022-11-14T11:04:37.035Z,33.51
2022-11-14T11:09:59.603Z,33.67
2022-11-14T11:15:18.369Z,33.61
2022-11-14T11:20:34.172Z,34.22
2022-11-14T11:25:38.327Z,34.71
2022-11-14T11:30:54.568Z,34.59
2022-11-14T11:36:01.807Z,32.27
2022-11-14T11:41:25.879Z,29.14
2022-11-14T11:46:53.503Z,26.61
2022-11-14T11:51:57.083Z,23.39
2022-11-14T11:57:03.567Z,22.85
2022-11-14T12:02:20.441Z,24.08
2022-11-14T12:07:31.651Z,21.76
2022-11-14T12:12:45.714Z,20.02
2022-11-14T12:18:24.949Z,19.40
2022-11-14T12:23:45.138Z,18.97
2022-11-14T12:29:26.990Z,20.05
2022-11-14T12:34:33.329Z,17.91
2022-11-14T12:39:35.661Z,19.48
2022-11-14T12:44:39.487Z,17.84
2022-11-14T12:49:47.440Z,16.59
2022-11-14T12:54:49.511Z,16.46
2022-11-14T13:00:01.264Z,18.60
2022-11-14T13:05:21.566Z,19.74
2022-11-14T13:10:29.588Z,16.49
2022-11-14T13:15:52.639Z,15.46
2022-11-14T13:21:34.596Z,14.86
2022-11-14T13:26:39.158Z,14.47
2022-11-14T13:31:47.928Z,14.20
2022-11-14T13:36:49.898Z,13.92
2022-11-14T13:42:20.164Z,13.90
2022-11-14T13:47:34.185Z,13.72
2022-11-14T13:52:43.193Z,13.60
2022-11-14T13:58:02.587Z,13.42
2022-11-14T14:03:26.415Z,13.25
2022-11-14T14:08:31.256Z,13.12
2022-11-14T14:13:36.808Z,12.98
2022-11-14T14:19:00.333Z,12.84
2022-11-14T14:24:49.485Z,12.72
2022-11-14T14:30:14.716Z,12.59
2022-11-14T14:35:35.603Z,12.47
2022-11-14T14:40:42.978Z,12.32
2022-11-14T14:45:51.292Z,12.27
2022-11-14T14:50:55.869Z,12.14
2022-11-14T14:55:59.528Z,12.03
2022-11-14T15:01:07.417Z,11.85
2022-11-14T15:06:31.823Z,11.63
2022-11-14T15:11:35.137Z,11.48
2022-11-14T15:16:37.494Z,11.29
2022-11-14T15:21:39.574Z,11.12
2022-11-14T15:26:47.538Z,10.91
2022-11-14T15:31:59.082Z,10.66
2022-11-14T15:37:06.931Z,10.54
2022-11-14T15:42:23.903Z,10.38
2022-11-14T15:47:35.128Z,10.21
2022-11-14T15:52:40.427Z,10.17
2022-11-14T15:57:45.388Z,10.02
2022-11-14T16:02:56.037Z,9.96
2022-11-14T16:07:58.119Z,9.84
2022-11-14T16:13:00.137Z,9.77
2022-11-14T16:18:05.038Z,9.65
2022-11-14T16:23:07.177Z,9.49
2022-11-14T16:28:09.193Z,9.51
2022-11-14T16:33:11.200Z,9.40
2022-11-14T16:38:14.024Z,9.24
2022-11-14T16:43:16.105Z,9.17
2022-11-14T16:48:18.100Z,9.12
2022-11-14T16:53:20.171Z,9.01
2022-11-14T16:58:22.626Z,8.98
2022-11-14T17:03:24.733Z,8.86
2022-11-14T17:08:26.735Z,8.85
2022-11-14T17:13:30.840Z,8.82
2022-11-14T17:18:38.406Z,8.70
2022-11-14T17:23:40.732Z,8.74
2022-11-14T17:28:44.330Z,8.63
2022-11-14T17:33:54.248Z,8.65
2022-11-14T17:38:57.600Z,8.52
2022-11-14T17:44:02.535Z,8.39
2022-11-14T17:49:04.570Z,8.37
2022-11-14T17:54:06.653Z,8.19
2022-11-14T17:59:08.742Z,8.17
2022-11-14T18:04:11.674Z,8.01
2022-11-14T18:09:14.692Z,7.93
2022-11-14T18:14:16.851Z,7.89
2022-11-14T18:19:18.895Z,7.79
2022-11-14T18:24:21.764Z,7.74
2022-11-14T18:29:23.865Z,7.70
2022-11-14T18:34:25.887Z,7.47
2022-11-14T18:39:29.033Z,7.44
2022-11-14T18:44:31.051Z,7.33
2022-11-14T18:49:33.122Z,7.27
2022-11-14T18:54:35.151Z,7.14
2022-11-14T18:59:37.154Z,7.12
2022-11-14T19:04:39.172Z,7.17
2022-11-14T19:09:41.214Z,7.02
2022-11-14T19:14:43.259Z,7.03
2022-11-14T19:19:45.263Z,7.12
2022-11-14T19:24:47.441Z,7.04
2022-11-14T19:29:50.721Z,6.93
2022-11-14T19:34:52.775Z,6.77
2022-11-14T19:39:55.604Z,6.66
2022-11-14T19:44:57.678Z,6.54
2022-11-14T19:49:59.703Z,6.46
2022-11-14T19:55:01.712Z,6.55
2022-11-14T20:00:04.870Z,6.41
2022-11-14T20:05:08.203Z,6.32
2022-11-14T20:10:10.606Z,6.33
2022-11-14T20:15:12.628Z,6.14
2022-11-14T20:20:14.668Z,6.07
